createdAt,value
2018-08-28T00:01:31.605Z,101419.95
2018-08-28T00:03:59.909Z,101423.13
2018-08-28T00:06:28.177Z,101426.87
2018-08-28T00:08:56.669Z,101434.30
2018-08-28T00:11:25.140Z,101433.81
2018-08-28T00:13:53.415Z,101434.59
2018-08-28T00:16:21.691Z,101433.81
2018-08-28T00:18:49.941Z,101444.22
2018-08-28T00:21:18.217Z,101438.80
2018-08-28T00:23:46.653Z,101443.94
2018-08-28T00:26:14.898Z,101440.90
2018-08-28T00:28:43.154Z,101445.80
2018-08-28T00:31:11.417Z,101448.39
2018-08-28T00:33:39.673Z,101440.48
2018-08-28T00:36:07.958Z,101444.48
2018-08-28T00:38:37.310Z,101450.80
2018-08-28T00:41:05.590Z,101459.95
2018-08-28T00:43:33.839Z,101455.46
2018-08-28T00:46:02.137Z,101460.48
2018-08-28T00:48:30.407Z,101467.45
2018-08-28T00:50:58.677Z,101462.40
2018-08-28T00:53:26.971Z,101473.23
2018-08-28T00:55:55.243Z,101469.48
2018-08-28T00:58:24.569Z,101471.67
2018-08-28T01:00:52.860Z,101476.69
2018-08-28T01:03:21.097Z,101475.03
2018-08-28T01:05:49.411Z,101481.44
2018-08-28T01:08:17.681Z,101483.92
2018-08-28T01:10:46.989Z,101477.68
2018-08-28T01:13:15.239Z,101480.69
2018-08-28T01:15:43.513Z,101485.97
2018-08-28T01:18:11.759Z,101485.82
2018-08-28T01:20:40.014Z,101491.04
2018-08-28T01:23:08.302Z,101493.58
2018-08-28T01:25:36.557Z,101500.95
2018-08-28T01:28:04.964Z,101501.70
2018-08-28T01:30:33.969Z,101503.66
2018-08-28T01:33:03.928Z,101506.23
2018-08-28T01:35:32.369Z,101508.25
2018-08-28T01:38:00.756Z,101504.00
2018-08-28T01:40:29.545Z,101505.61
2018-08-28T01:42:57.837Z,101505.03
2018-08-28T01:45:26.115Z,101504.33
2018-08-28T01:47:54.390Z,101512.58
2018-08-28T01:50:22.714Z,101513.99
2018-08-28T01:52:50.997Z,101510.63
2018-08-28T01:55:19.250Z,101508.81
2018-08-28T01:57:47.513Z,101505.11
2018-08-28T02:00:15.762Z,101511.64
2018-08-28T02:02:44.053Z,101515.66
2018-08-28T02:05:12.327Z,101512.63
2018-08-28T02:07:40.640Z,101511.16
2018-08-28T02:10:08.960Z,101514.77
2018-08-28T02:12:38.280Z,101519.42
2018-08-28T02:15:07.569Z,101523.02
2018-08-28T02:17:35.917Z,101526.19
2018-08-28T02:20:04.833Z,101528.00
2018-08-28T02:22:33.125Z,101526.65
2018-08-28T02:25:01.479Z,101532.55
2018-08-28T02:27:29.736Z,101530.78
2018-08-28T02:29:58.061Z,101533.27
2018-08-28T02:32:26.329Z,101531.54
2018-08-28T02:34:54.613Z,101537.02
2018-08-28T02:37:22.881Z,101542.64
2018-08-28T02:39:51.206Z,101546.52
2018-08-28T02:42:19.517Z,101550.12
2018-08-28T02:44:47.803Z,101550.64
2018-08-28T02:47:16.069Z,101552.47
2018-08-28T02:49:45.381Z,101550.53
2018-08-28T02:52:13.680Z,101553.95
2018-08-28T02:54:41.987Z,101556.78
2018-08-28T02:57:10.299Z,101559.06
2018-08-28T02:59:38.558Z,101562.15
2018-08-28T03:02:06.933Z,101568.80
2018-08-28T03:04:35.217Z,101571.70
2018-08-28T03:07:03.484Z,101573.98
2018-08-28T03:09:31.801Z,101582.75
2018-08-28T03:12:00.109Z,101586.08
2018-08-28T03:14:28.367Z,101592.42
2018-08-28T03:16:56.629Z,101593.63
2018-08-28T03:19:24.929Z,101597.15
2018-08-28T03:21:53.290Z,101598.69
2018-08-28T03:24:21.552Z,101602.50
2018-08-28T03:26:49.844Z,101605.98
2018-08-28T03:29:18.109Z,101605.53
2018-08-28T03:31:46.420Z,101607.69
2018-08-28T03:34:14.818Z,101607.70
2018-08-28T03:36:43.113Z,101605.29
2018-08-28T03:39:11.486Z,101607.20
2018-08-28T03:41:39.773Z,101610.83
2018-08-28T03:44:09.069Z,101613.83
2018-08-28T03:46:37.468Z,101615.12
2018-08-28T03:49:05.757Z,101620.80
2018-08-28T03:51:34.061Z,101626.42
2018-08-28T03:54:02.329Z,101628.70
2018-08-28T03:56:30.641Z,101632.17
2018-08-28T03:58:58.912Z,101630.13
2018-08-28T04:01:27.215Z,101629.76
2018-08-28T04:03:55.530Z,101629.14
2018-08-28T04:06:23.825Z,101636.69
2018-08-28T04:08:52.144Z,101638.70
2018-08-28T04:11:21.444Z,101642.57
2018-08-28T04:13:49.740Z,101642.94
2018-08-28T04:16:18.021Z,101638.42
2018-08-28T04:18:46.305Z,101645.35
2018-08-28T04:21:15.700Z,101644.16
2018-08-28T04:23:44.018Z,101643.67
2018-08-28T04:26:12.301Z,101648.80
2018-08-28T04:28:40.635Z,101649.78
2018-08-28T04:31:08.925Z,101647.98
2018-08-28T04:33:37.222Z,101650.13
2018-08-28T04:36:05.525Z,101652.90
2018-08-28T04:38:34.877Z,101659.95
2018-08-28T04:41:03.153Z,101658.72
2018-08-28T04:43:31.565Z,101659.81
2018-08-28T04:45:59.829Z,101663.77
2018-08-28T04:48:28.208Z,101665.67
2018-08-28T04:50:56.458Z,101669.87
2018-08-28T04:53:24.786Z,101677.64
2018-08-28T04:55:53.225Z,101676.54
2018-08-28T04:58:22.596Z,101681.57
2018-08-28T05:00:50.960Z,101686.58
2018-08-28T05:03:20.262Z,101685.61
2018-08-28T05:05:48.713Z,101687.06
2018-08-28T05:08:17.026Z,101684.84
2018-08-28T05:10:45.405Z,101685.58
2018-08-28T05:13:14.772Z,101693.22
2018-08-28T05:15:43.170Z,101694.27
2018-08-28T05:18:11.431Z,101702.64
2018-08-28T05:20:39.849Z,101708.32
2018-08-28T05:23:10.247Z,101708.70
2018-08-28T05:25:38.542Z,101712.88
2018-08-28T05:28:07.021Z,101715.86
2018-08-28T05:30:35.388Z,101716.27
2018-08-28T05:33:03.649Z,101721.16
2018-08-28T05:35:31.949Z,101720.04
2018-08-28T05:38:00.263Z,101719.55
2018-08-28T05:40:28.500Z,101724.56
2018-08-28T05:42:56.772Z,101723.78
2018-08-28T05:45:25.170Z,101723.66
2018-08-28T05:47:53.445Z,101723.55
2018-08-28T05:50:21.742Z,101726.12
2018-08-28T05:52:49.995Z,101727.44
2018-08-28T05:55:18.291Z,101726.88
2018-08-28T05:57:48.601Z,101730.38
2018-08-28T06:00:17.941Z,101734.34
2018-08-28T06:02:46.302Z,101738.33
2018-08-28T06:05:14.658Z,101743.50
2018-08-28T06:07:42.965Z,101744.44
2018-08-28T06:10:11.245Z,101742.22
2018-08-28T06:12:40.608Z,101743.66
2018-08-28T06:15:09.049Z,101741.16
2018-08-28T06:17:37.340Z,101736.81
2018-08-28T06:20:06.105Z,101749.92
2018-08-28T06:22:34.438Z,101744.29
2018-08-28T06:25:03.857Z,101743.99
2018-08-28T06:27:32.149Z,101746.73
2018-08-28T06:30:00.399Z,101751.59
2018-08-28T06:32:28.753Z,101739.45
2018-08-28T06:34:57.026Z,101740.88
2018-08-28T06:37:25.467Z,101743.24
2018-08-28T06:39:55.641Z,101749.02
2018-08-28T06:42:24.922Z,101745.19
2018-08-28T06:44:53.185Z,101750.83
2018-08-28T06:47:22.497Z,101747.73
2018-08-28T06:49:51.820Z,101751.78
2018-08-28T06:52:20.120Z,101758.97
2018-08-28T06:54:48.390Z,101757.88
2018-08-28T06:57:17.758Z,101756.03
2018-08-28T06:59:46.326Z,101762.52
2018-08-28T07:02:14.592Z,101758.59
2018-08-28T07:04:42.893Z,101766.94
2018-08-28T07:07:11.366Z,101767.62
2018-08-28T07:09:40.665Z,101770.08
2018-08-28T07:12:08.970Z,101770.23
2018-08-28T07:14:37.242Z,101774.94
2018-08-28T07:17:06.557Z,101776.81
2018-08-28T07:19:34.853Z,101774.25
2018-08-28T07:22:03.444Z,101777.22
2018-08-28T07:24:31.713Z,101784.77
2018-08-28T07:27:00.057Z,101783.73
2018-08-28T07:29:28.321Z,101783.09
2018-08-28T07:31:56.680Z,101784.39
2018-08-28T07:34:24.889Z,101781.88
2018-08-28T07:36:54.236Z,101788.75
2018-08-28T07:39:22.565Z,101793.31
2018-08-28T07:41:51.893Z,101795.39
2018-08-28T07:44:20.399Z,101801.17
2018-08-28T07:46:48.675Z,101799.73
2018-08-28T07:49:17.047Z,101800.60
2018-08-28T07:51:45.353Z,101799.64
2018-08-28T07:54:13.619Z,101806.83
2018-08-28T07:56:41.915Z,101807.30
2018-08-28T07:59:10.187Z,101803.92
2018-08-28T08:01:39.205Z,101802.73
2018-08-28T08:04:07.509Z,101803.16
2018-08-28T08:06:35.845Z,101808.55
2018-08-28T08:09:07.688Z,101795.06
2018-08-28T08:11:35.989Z,101799.47
2018-08-28T08:14:04.349Z,101804.15
2018-08-28T08:16:32.617Z,101806.59
2018-08-28T08:19:00.913Z,101810.23
2018-08-28T08:21:29.235Z,101799.61
2018-08-28T08:23:57.554Z,101807.30
2018-08-28T08:26:25.864Z,101805.63
2018-08-28T08:28:55.245Z,101807.30
2018-08-28T08:31:23.572Z,101813.13
2018-08-28T08:33:51.909Z,101814.95
2018-08-28T08:36:20.230Z,101817.64
2018-08-28T08:38:48.554Z,101823.97
2018-08-28T08:41:16.905Z,101815.80
2018-08-28T08:43:45.202Z,101822.43
2018-08-28T08:46:13.562Z,101824.91
2018-08-28T08:48:41.822Z,101822.56
2018-08-28T08:51:10.110Z,101832.29
2018-08-28T08:53:38.481Z,101828.92
2018-08-28T08:56:06.801Z,101836.55
2018-08-28T08:58:36.084Z,101836.82
2018-08-28T09:01:04.382Z,101834.55
2018-08-28T09:03:32.695Z,101838.39
2018-08-28T09:06:01.222Z,101841.88
2018-08-28T09:08:29.475Z,101842.41
2018-08-28T09:10:57.793Z,101840.81
2018-08-28T09:13:26.096Z,101850.71
2018-08-28T09:15:54.371Z,101861.59
2018-08-28T09:18:23.727Z,101865.39
2018-08-28T09:20:52.017Z,101871.75
2018-08-28T09:23:20.313Z,101869.47
2018-08-28T09:25:48.621Z,101873.07
2018-08-28T09:28:16.985Z,101872.81
2018-08-28T09:30:45.278Z,101879.94
2018-08-28T09:33:13.577Z,101866.70
2018-08-28T09:35:41.901Z,101860.23
2018-08-28T09:38:11.330Z,101853.05
2018-08-28T09:40:39.669Z,101854.14
2018-08-28T09:43:07.966Z,101858.98
2018-08-28T09:45:36.237Z,101857.67
2018-08-28T09:48:04.624Z,101858.59
2018-08-28T09:50:33.074Z,101860.91
2018-08-28T09:53:01.357Z,101863.45
2018-08-28T09:55:29.652Z,101865.45
2018-08-28T09:57:59.039Z,101872.31
2018-08-28T10:00:30.121Z,101877.77
2018-08-28T10:02:59.239Z,101882.95
2018-08-28T10:05:27.533Z,101878.55
2018-08-28T10:07:55.924Z,101883.83
2018-08-28T10:10:25.234Z,101889.58
2018-08-28T10:12:53.545Z,101888.03
2018-08-28T10:15:21.851Z,101893.98
2018-08-28T10:17:50.138Z,101888.36
2018-08-28T10:20:18.402Z,101898.92
2018-08-28T10:22:46.815Z,101897.06
2018-08-28T10:25:15.081Z,101899.02
2018-08-28T10:27:43.388Z,101897.13
2018-08-28T10:30:11.702Z,101898.77
2018-08-28T10:32:39.981Z,101902.62
2018-08-28T10:35:08.717Z,101901.31
2018-08-28T10:37:37.032Z,101903.92
2018-08-28T10:40:06.399Z,101899.79
2018-08-28T10:42:34.681Z,101908.64
2018-08-28T10:45:03.054Z,101900.44
2018-08-28T10:47:31.319Z,101903.34
2018-08-28T10:49:59.786Z,101906.91
2018-08-28T10:52:28.155Z,101902.34
2018-08-28T10:54:56.672Z,101902.66
2018-08-28T10:57:25.006Z,101907.83
2018-08-28T10:59:54.041Z,101901.28
2018-08-28T11:02:22.549Z,101905.30
2018-08-28T11:04:50.845Z,101903.30
2018-08-28T11:07:19.129Z,101899.00
2018-08-28T11:09:47.417Z,101909.46
2018-08-28T11:12:16.721Z,101915.47
2018-08-28T11:14:45.006Z,101907.16
2018-08-28T11:17:13.269Z,101916.82
2018-08-28T11:19:41.596Z,101918.13
2018-08-28T11:22:10.052Z,101919.48
2018-08-28T11:24:38.334Z,101915.11
2018-08-28T11:27:06.594Z,101910.39
2018-08-28T11:29:35.278Z,101912.30
2018-08-28T11:32:04.710Z,101918.67
2018-08-28T11:34:33.969Z,101919.24
2018-08-28T11:37:02.376Z,101916.65
2018-08-28T11:39:30.638Z,101917.94
2018-08-28T11:42:00.984Z,101916.92
2018-08-28T11:44:33.238Z,101928.62
2018-08-28T11:47:01.625Z,101924.80
2018-08-28T11:49:29.963Z,101923.30
2018-08-28T11:51:58.276Z,101934.63
2018-08-28T11:54:26.567Z,101931.61
2018-08-28T11:56:56.117Z,101929.45
2018-08-28T11:59:24.638Z,101921.44
2018-08-28T12:01:52.978Z,101920.77
2018-08-28T12:04:21.312Z,101923.87
2018-08-28T12:06:49.707Z,101921.13
2018-08-28T12:09:17.891Z,101925.08
2018-08-28T12:11:46.293Z,101932.64
2018-08-28T12:14:14.569Z,101925.65
2018-08-28T12:16:42.887Z,101933.51
2018-08-28T12:19:11.186Z,101930.85
2018-08-28T12:21:40.157Z,101926.66
2018-08-28T12:24:09.485Z,101941.52
2018-08-28T12:26:39.321Z,101940.41
2018-08-28T12:29:07.614Z,101936.14
2018-08-28T12:31:37.014Z,101935.67
2018-08-28T12:34:06.433Z,101944.23
2018-08-28T12:36:34.805Z,101939.99
2018-08-28T12:39:05.561Z,101938.58
2018-08-28T12:41:33.830Z,101937.20
2018-08-28T12:44:02.262Z,101932.84
2018-08-28T12:46:30.464Z,101931.91
2018-08-28T12:48:58.797Z,101936.95
2018-08-28T12:51:28.313Z,101936.74
2018-08-28T12:53:56.493Z,101943.23
2018-08-28T12:56:24.773Z,101952.45
2018-08-28T12:58:54.218Z,101951.61
2018-08-28T13:01:22.457Z,101958.41
2018-08-28T13:03:50.772Z,101958.06
2018-08-28T13:06:20.113Z,101956.67
2018-08-28T13:08:48.426Z,101960.25
2018-08-28T13:11:16.709Z,101968.40
2018-08-28T13:13:46.200Z,101971.30
2018-08-28T13:16:14.473Z,101964.41
2018-08-28T13:18:42.838Z,101971.13
2018-08-28T13:21:11.086Z,101967.97
2018-08-28T13:23:40.410Z,101968.97
2018-08-28T13:26:08.920Z,101967.43
2018-08-28T13:28:37.054Z,101969.55
2018-08-28T13:31:05.621Z,101961.44
2018-08-28T13:33:33.906Z,101951.44
2018-08-28T13:36:02.238Z,101960.42
2018-08-28T13:38:30.505Z,101964.41
2018-08-28T13:40:58.828Z,101962.58
2018-08-28T13:43:27.146Z,101957.08
2018-08-28T13:45:55.477Z,101958.76
2018-08-28T13:48:23.801Z,101955.26
2018-08-28T13:50:52.091Z,101953.77
2018-08-28T13:53:20.365Z,101950.75
2018-08-28T13:55:48.810Z,101956.59
2018-08-28T13:58:17.130Z,101949.91
2018-08-28T14:00:46.534Z,101949.23
2018-08-28T14:03:14.846Z,101946.68
2018-08-28T14:05:44.169Z,101946.66
2018-08-28T14:08:13.615Z,101947.89
2018-08-28T14:10:42.993Z,101943.11
2018-08-28T14:13:11.303Z,101959.23
2018-08-28T14:15:39.627Z,101956.59
2018-08-28T14:18:07.954Z,101959.44
2018-08-28T14:20:36.301Z,101957.02
2018-08-28T14:23:04.765Z,101954.69
2018-08-28T14:25:33.162Z,101962.33
2018-08-28T14:28:01.466Z,101967.38
2018-08-28T14:30:31.836Z,101959.91
2018-08-28T14:33:00.257Z,101954.98
2018-08-28T14:35:29.636Z,101963.23
2018-08-28T14:37:57.955Z,101960.76
2018-08-28T14:40:26.356Z,101963.07
2018-08-28T14:42:54.577Z,101966.70
2018-08-28T14:45:22.881Z,101956.92
2018-08-28T14:47:51.479Z,101968.72
2018-08-28T14:50:19.897Z,101966.59
2018-08-28T14:52:48.167Z,101967.23
2018-08-28T14:55:17.593Z,101964.73
2018-08-28T14:57:45.893Z,101961.82
2018-08-28T15:00:14.178Z,101964.74
2018-08-28T15:02:42.502Z,101968.08
2018-08-28T15:05:10.758Z,101972.23
2018-08-28T15:07:40.201Z,101974.02
2018-08-28T15:10:08.509Z,101963.91
2018-08-28T15:12:36.855Z,101961.07
2018-08-28T15:15:05.198Z,101960.27
2018-08-28T15:17:33.920Z,101960.75
2018-08-28T15:20:02.210Z,101965.39
2018-08-28T15:22:30.685Z,101965.56
2018-08-28T15:24:58.991Z,101966.36
2018-08-28T15:27:27.436Z,101964.89
2018-08-28T15:29:55.729Z,101967.64
2018-08-28T15:32:24.005Z,101965.55
2018-08-28T15:34:52.333Z,101961.36
2018-08-28T15:37:20.668Z,101964.58
2018-08-28T15:39:49.071Z,101964.55
2018-08-28T15:42:18.357Z,101964.81
2018-08-28T15:44:47.702Z,101959.13
2018-08-28T15:47:15.977Z,101959.28
2018-08-28T15:49:44.286Z,101967.09
2018-08-28T15:55:02.986Z,101962.96
2018-08-28T15:57:31.220Z,101962.25
2018-08-28T15:59:59.498Z,101961.99
2018-08-28T16:02:27.784Z,101953.98
2018-08-28T16:04:56.078Z,101956.69
2018-08-28T16:07:24.329Z,101959.01
2018-08-28T16:09:52.627Z,101957.88
2018-08-28T16:12:20.892Z,101957.33
2018-08-28T16:14:49.189Z,101959.66
2018-08-28T16:17:17.473Z,101963.60
2018-08-28T16:19:45.766Z,101962.63
2018-08-28T16:22:16.148Z,101961.16
2018-08-28T16:24:44.437Z,101955.97
2018-08-28T16:27:12.756Z,101957.64
2018-08-28T16:29:41.041Z,101962.22
2018-08-28T16:32:10.311Z,101958.42
2018-08-28T16:34:39.786Z,101959.66
2018-08-28T16:37:08.139Z,101956.40
2018-08-28T16:39:36.510Z,101956.20
2018-08-28T16:42:04.797Z,101955.90
2018-08-28T16:44:33.109Z,101956.63
2018-08-28T16:47:01.390Z,101958.89
2018-08-28T16:49:29.661Z,101959.53
2018-08-28T16:51:58.946Z,101960.22
2018-08-28T16:54:27.215Z,101958.50
2018-08-28T16:56:55.514Z,101958.80
2018-08-28T16:59:24.861Z,101965.44
2018-08-28T17:01:54.656Z,101961.04
2018-08-28T17:04:24.890Z,101958.05
2018-08-28T17:06:53.182Z,101961.41
2018-08-28T17:09:21.446Z,101962.04
2018-08-28T17:11:49.714Z,101965.97
2018-08-28T17:14:18.039Z,101958.50
2018-08-28T17:16:46.339Z,101963.78
2018-08-28T17:19:14.662Z,101963.48
2018-08-28T17:21:42.930Z,101957.30
2018-08-28T17:24:12.453Z,101965.56
2018-08-28T17:26:40.774Z,101957.83
2018-08-28T17:29:09.117Z,101956.75
2018-08-28T17:31:37.397Z,101958.98
2018-08-28T17:34:05.808Z,101957.77
2018-08-28T17:36:34.133Z,101958.31
2018-08-28T17:39:03.953Z,101955.11
2018-08-28T17:41:32.282Z,101956.11
2018-08-28T17:44:01.597Z,101955.34
2018-08-28T17:46:32.001Z,101955.34
2018-08-28T17:49:00.351Z,101960.08
2018-08-28T17:51:28.586Z,101957.48
2018-08-28T17:53:57.860Z,101966.50
2018-08-28T17:56:27.123Z,101964.36
2018-08-28T17:58:55.469Z,101963.08
2018-08-28T18:01:23.794Z,101972.53
2018-08-28T18:03:52.150Z,101971.64
2018-08-28T18:06:20.348Z,101972.33
2018-08-28T18:08:48.622Z,101975.91
2018-08-28T18:11:16.945Z,101975.17
2018-08-28T18:13:45.201Z,101974.08
2018-08-28T18:16:15.607Z,101972.25
2018-08-28T18:18:43.913Z,101978.05
2018-08-28T18:21:12.185Z,101980.17
2018-08-28T18:23:40.683Z,101983.22
2018-08-28T18:26:09.057Z,101983.70
2018-08-28T18:28:37.400Z,101986.22
2018-08-28T18:31:05.704Z,101983.14
2018-08-28T18:33:34.025Z,101987.73
2018-08-28T18:36:02.449Z,101996.27
2018-08-28T18:38:31.770Z,101992.52
2018-08-28T18:41:00.059Z,101996.34
2018-08-28T18:43:32.906Z,101991.22
2018-08-28T18:46:01.198Z,101996.12
2018-08-28T18:48:29.513Z,101993.20
2018-08-28T18:50:58.917Z,102001.66
2018-08-28T18:53:27.269Z,101997.94
2018-08-28T18:55:55.542Z,101996.34
2018-08-28T18:58:24.021Z,101996.92
2018-08-28T19:00:52.320Z,102003.06
2018-08-28T19:03:20.709Z,102000.00
2018-08-28T19:05:48.970Z,101996.69
2018-08-28T19:08:18.254Z,102003.39
2018-08-28T19:10:47.592Z,101999.86
2018-08-28T19:13:15.906Z,101999.16
2018-08-28T19:15:46.348Z,102000.84
2018-08-28T19:18:14.684Z,102002.56
2018-08-28T19:20:44.121Z,102003.16
2018-08-28T19:23:12.477Z,101995.67
2018-08-28T19:25:40.753Z,102004.66
2018-08-28T19:28:09.086Z,102000.52
2018-08-28T19:30:37.308Z,101999.78
2018-08-28T19:33:05.698Z,101993.95
2018-08-28T19:35:33.949Z,102003.14
2018-08-28T19:38:02.217Z,101995.96
2018-08-28T19:40:30.506Z,102001.61
2018-08-28T19:42:58.899Z,101998.59
2018-08-28T19:45:27.158Z,101994.27
2018-08-28T19:47:55.425Z,101997.20
2018-08-28T19:50:23.673Z,101994.89
2018-08-28T19:52:51.957Z,101994.36
2018-08-28T19:55:21.389Z,101991.30
2018-08-28T19:57:49.688Z,101993.05
2018-08-28T20:00:20.845Z,101996.70
2018-08-28T20:02:49.133Z,101994.14
2018-08-28T20:05:17.394Z,101992.14
2018-08-28T20:07:45.806Z,101991.98
2018-08-28T20:10:14.254Z,101988.56
2018-08-28T20:12:42.521Z,101988.72
2018-08-28T20:15:10.821Z,101987.05
2018-08-28T20:17:39.154Z,101986.41
2018-08-28T20:20:07.422Z,101984.24
2018-08-28T20:22:35.725Z,101985.72
2018-08-28T20:25:04.005Z,101986.32
2018-08-28T20:27:32.281Z,101987.05
2018-08-28T20:30:00.605Z,101987.83
2018-08-28T20:32:28.880Z,101987.70
2018-08-28T20:34:57.153Z,101982.03
2018-08-28T20:37:25.753Z,101985.52
2018-08-28T20:39:53.946Z,101986.06
2018-08-28T20:42:22.210Z,101988.38
2018-08-28T20:44:50.723Z,101979.66
2018-08-28T20:47:19.005Z,101975.30
2018-08-28T20:49:47.281Z,101974.73
2018-08-28T20:52:15.745Z,101978.44
2018-08-28T20:54:44.010Z,101968.50
2018-08-28T20:57:12.263Z,101972.63
2018-08-28T20:59:40.547Z,101970.45
2018-08-28T21:02:08.821Z,101966.66
2018-08-28T21:04:37.069Z,101964.11
2018-08-28T21:07:05.730Z,101963.37
2018-08-28T21:09:33.990Z,101961.83
2018-08-28T21:12:02.264Z,101956.19
2018-08-28T21:14:31.552Z,101957.41
2018-08-28T21:16:59.835Z,101954.11
2018-08-28T21:19:28.079Z,101952.45
2018-08-28T21:21:56.352Z,101946.20
2018-08-28T21:24:24.601Z,101952.81
2018-08-28T21:26:52.883Z,101950.64
2018-08-28T21:29:21.210Z,101945.02
2018-08-28T21:31:49.841Z,101958.94
2018-08-28T21:34:18.097Z,101958.53
2018-08-28T21:36:46.381Z,101959.03
2018-08-28T21:39:14.635Z,101963.20
2018-08-28T21:41:42.885Z,101953.59
2018-08-28T21:44:11.454Z,101951.95
2018-08-28T21:46:39.700Z,101950.97
2018-08-28T21:49:07.977Z,101959.89
2018-08-28T21:51:36.225Z,101966.90
2018-08-28T21:54:04.561Z,101964.94
2018-08-28T21:56:32.849Z,101958.61
2018-08-28T21:59:02.205Z,101960.47
2018-08-28T22:01:30.538Z,101956.00
2018-08-28T22:03:59.881Z,101962.16
2018-08-28T22:06:33.430Z,101959.90
2018-08-28T22:09:01.711Z,101958.44
2018-08-28T22:11:29.986Z,101959.50
2018-08-28T22:13:58.244Z,101962.73
2018-08-28T22:16:26.538Z,101958.22
2018-08-28T22:18:54.805Z,101960.48
2018-08-28T22:21:23.066Z,101954.61
2018-08-28T22:23:51.565Z,101954.23
2018-08-28T22:26:19.830Z,101955.00
2018-08-28T22:28:48.101Z,101956.86
2018-08-28T22:31:16.385Z,101958.34
2018-08-28T22:33:46.742Z,101954.38
2018-08-28T22:36:15.003Z,101961.27
2018-08-28T22:38:43.410Z,101965.97
2018-08-28T22:41:11.720Z,101962.28
2018-08-28T22:43:39.995Z,101962.81
2018-08-28T22:46:09.292Z,101962.47
2018-08-28T22:48:37.534Z,101957.47
2018-08-28T22:51:05.849Z,101953.50
2018-08-28T22:53:34.563Z,101956.05
2018-08-28T22:56:02.822Z,101954.55
2018-08-28T22:58:31.093Z,101951.73
2018-08-28T23:01:01.278Z,101948.39
2018-08-28T23:03:29.549Z,101950.69
2018-08-28T23:05:57.796Z,101947.86
2018-08-28T23:08:26.172Z,101945.25
2018-08-28T23:10:54.409Z,101943.90
2018-08-28T23:13:22.689Z,101941.26
2018-08-28T23:15:52.094Z,101942.77
2018-08-28T23:18:21.466Z,101937.78
2018-08-28T23:20:49.713Z,101940.50
2018-08-28T23:23:17.997Z,101938.13
2018-08-28T23:25:46.247Z,101944.55
2018-08-28T23:28:14.485Z,101938.27
2018-08-28T23:30:42.767Z,101932.41
2018-08-28T23:33:11.009Z,101932.75
2018-08-28T23:35:39.280Z,101936.89
2018-08-28T23:38:07.769Z,101934.61
2018-08-28T23:40:36.005Z,101937.38
2018-08-28T23:43:04.286Z,101931.98
2018-08-28T23:45:32.590Z,101933.93
2018-08-28T23:48:00.834Z,101934.63
2018-08-28T23:50:29.101Z,101934.89
2018-08-28T23:52:57.387Z,101932.06
2018-08-28T23:55:25.677Z,101933.38
2018-08-28T23:57:53.921Z,101935.89
